sensor_id;sensor_type;location;lat;lon;timestamp;temperature;humidity
16321;DHT22;8269;50.990;4.494;2023-04-24T00:02:15;9.30;99.90
16321;DHT22;8269;50.990;4.494;2023-04-24T00:04:41;9.30;99.90
16321;DHT22;8269;50.990;4.494;2023-04-24T00:07:10;9.30;99.90
16321;DHT22;8269;50.990;4.494;2023-04-24T00:09:36;9.40;99.90
16321;DHT22;8269;50.990;4.494;2023-04-24T00:12:02;9.30;99.90
16321;DHT22;8269;50.990;4.494;2023-04-24T00:14:30;9.30;99.90
16321;DHT22;8269;50.990;4.494;2023-04-24T00:16:56;9.30;99.90
16321;DHT22;8269;50.990;4.494;2023-04-24T00:19:22;9.30;99.90
16321;DHT22;8269;50.990;4.494;2023-04-24T00:21:48;9.30;99.90
16321;DHT22;8269;50.990;4.494;2023-04-24T00:24:16;9.30;99.90
16321;DHT22;8269;50.990;4.494;2023-04-24T00:26:42;9.30;99.90
16321;DHT22;8269;50.990;4.494;2023-04-24T00:29:07;9.30;99.90
16321;DHT22;8269;50.990;4.494;2023-04-24T00:31:33;9.30;99.90
16321;DHT22;8269;50.990;4.494;2023-04-24T00:34:03;9.30;99.90
16321;DHT22;8269;50.990;4.494;2023-04-24T00:36:28;9.20;99.90
16321;DHT22;8269;50.990;4.494;2023-04-24T00:38:56;9.20;99.90
16321;DHT22;8269;50.990;4.494;2023-04-24T00:41:22;9.30;99.90
16321;DHT22;8269;50.990;4.494;2023-04-24T00:43:48;9.30;99.90
16321;DHT22;8269;50.990;4.494;2023-04-24T00:46:14;9.20;99.90
16321;DHT22;8269;50.990;4.494;2023-04-24T00:48:41;9.20;99.90
16321;DHT22;8269;50.990;4.494;2023-04-24T00:51:06;9.20;99.90
16321;DHT22;8269;50.990;4.494;2023-04-24T00:53:32;9.10;99.90
16321;DHT22;8269;50.990;4.494;2023-04-24T00:55:58;9.10;99.90
16321;DHT22;8269;50.990;4.494;2023-04-24T00:58:25;9.10;99.90
16321;DHT22;8269;50.990;4.494;2023-04-24T01:00:52;9.10;99.90
16321;DHT22;8269;50.990;4.494;2023-04-24T01:03:25;9.10;99.90
16321;DHT22;8269;50.990;4.494;2023-04-24T01:05:52;9.10;99.90
16321;DHT22;8269;50.990;4.494;2023-04-24T01:08:19;9.10;99.90
16321;DHT22;8269;50.990;4.494;2023-04-24T01:10:46;9.10;99.90
16321;DHT22;8269;50.990;4.494;2023-04-24T01:13:13;9.10;99.90
16321;DHT22;8269;50.990;4.494;2023-04-24T01:15:38;9.10;99.90
16321;DHT22;8269;50.990;4.494;2023-04-24T01:18:04;9.00;99.90
16321;DHT22;8269;50.990;4.494;2023-04-24T01:20:30;9.00;99.90
16321;DHT22;8269;50.990;4.494;2023-04-24T01:22:57;9.00;99.90
16321;DHT22;8269;50.990;4.494;2023-04-24T01:25:24;9.00;99.90
16321;DHT22;8269;50.990;4.494;2023-04-24T01:27:51;9.00;99.90
16321;DHT22;8269;50.990;4.494;2023-04-24T01:30:17;9.00;99.90
16321;DHT22;8269;50.990;4.494;2023-04-24T01:32:43;9.00;99.90
16321;DHT22;8269;50.990;4.494;2023-04-24T01:35:10;9.00;99.90
16321;DHT22;8269;50.990;4.494;2023-04-24T01:37:36;9.00;99.90
16321;DHT22;8269;50.990;4.494;2023-04-24T01:40:06;8.90;99.90
16321;DHT22;8269;50.990;4.494;2023-04-24T01:42:32;8.90;99.90
16321;DHT22;8269;50.990;4.494;2023-04-24T01:45:01;8.90;99.90
16321;DHT22;8269;50.990;4.494;2023-04-24T01:47:27;8.90;99.90
16321;DHT22;8269;50.990;4.494;2023-04-24T01:49:53;8.90;99.90
16321;DHT22;8269;50.990;4.494;2023-04-24T01:52:19;8.90;99.90
16321;DHT22;8269;50.990;4.494;2023-04-24T01:54:45;8.90;99.90
16321;DHT22;8269;50.990;4.494;2023-04-24T01:57:10;8.90;99.90
16321;DHT22;8269;50.990;4.494;2023-04-24T01:59:36;8.90;99.90
16321;DHT22;8269;50.990;4.494;2023-04-24T02:02:02;8.90;99.90
16321;DHT22;8269;50.990;4.494;2023-04-24T02:04:28;8.90;99.90
16321;DHT22;8269;50.990;4.494;2023-04-24T02:06:54;8.90;99.90
16321;DHT22;8269;50.990;4.494;2023-04-24T02:09:20;8.90;99.90
16321;DHT22;8269;50.990;4.494;2023-04-24T02:11:46;8.90;99.90
16321;DHT22;8269;50.990;4.494;2023-04-24T02:14:11;8.80;99.90
16321;DHT22;8269;50.990;4.494;2023-04-24T02:16:37;8.80;99.90
16321;DHT22;8269;50.990;4.494;2023-04-24T02:19:03;8.70;99.90
16321;DHT22;8269;50.990;4.494;2023-04-24T02:21:29;8.60;99.90
16321;DHT22;8269;50.990;4.494;2023-04-24T02:23:56;8.60;99.90
16321;DHT22;8269;50.990;4.494;2023-04-24T02:26:22;8.60;99.90
16321;DHT22;8269;50.990;4.494;2023-04-24T02:28:48;8.50;99.90
16321;DHT22;8269;50.990;4.494;2023-04-24T02:31:14;8.50;99.90
16321;DHT22;8269;50.990;4.494;2023-04-24T02:33:39;8.40;99.90
16321;DHT22;8269;50.990;4.494;2023-04-24T02:36:05;8.40;99.90
16321;DHT22;8269;50.990;4.494;2023-04-24T02:38:31;8.40;99.90
16321;DHT22;8269;50.990;4.494;2023-04-24T02:40:57;8.40;99.90
16321;DHT22;8269;50.990;4.494;2023-04-24T02:43:22;8.40;99.90
16321;DHT22;8269;50.990;4.494;2023-04-24T02:45:48;8.40;99.90
16321;DHT22;8269;50.990;4.494;2023-04-24T02:48:14;8.40;99.90
16321;DHT22;8269;50.990;4.494;2023-04-24T02:50:40;8.40;99.90
16321;DHT22;8269;50.990;4.494;2023-04-24T02:53:06;8.40;99.90
16321;DHT22;8269;50.990;4.494;2023-04-24T02:55:32;8.40;99.90
16321;DHT22;8269;50.990;4.494;2023-04-24T02:57:57;8.40;99.90
16321;DHT22;8269;50.990;4.494;2023-04-24T03:00:23;8.40;99.90
16321;DHT22;8269;50.990;4.494;2023-04-24T03:02:49;8.40;99.90
16321;DHT22;8269;50.990;4.494;2023-04-24T03:05:15;8.40;99.90
16321;DHT22;8269;50.990;4.494;2023-04-24T03:07:41;8.40;99.90
16321;DHT22;8269;50.990;4.494;2023-04-24T03:10:07;8.40;99.90
16321;DHT22;8269;50.990;4.494;2023-04-24T03:12:33;8.40;99.90
16321;DHT22;8269;50.990;4.494;2023-04-24T03:14:58;8.40;99.90
16321;DHT22;8269;50.990;4.494;2023-04-24T03:17:24;8.40;99.90
16321;DHT22;8269;50.990;4.494;2023-04-24T03:19:51;8.40;99.90
16321;DHT22;8269;50.990;4.494;2023-04-24T03:22:17;8.40;99.90
16321;DHT22;8269;50.990;4.494;2023-04-24T03:24:42;8.40;99.90
16321;DHT22;8269;50.990;4.494;2023-04-24T03:27:08;8.40;99.90
16321;DHT22;8269;50.990;4.494;2023-04-24T03:29:34;8.40;99.90
16321;DHT22;8269;50.990;4.494;2023-04-24T03:31:59;8.30;99.90
16321;DHT22;8269;50.990;4.494;2023-04-24T03:34:26;8.40;99.90
16321;DHT22;8269;50.990;4.494;2023-04-24T03:36:51;8.30;99.90
16321;DHT22;8269;50.990;4.494;2023-04-24T03:39:18;8.30;99.90
16321;DHT22;8269;50.990;4.494;2023-04-24T03:41:43;8.40;99.90
16321;DHT22;8269;50.990;4.494;2023-04-24T03:44:09;8.30;99.90
16321;DHT22;8269;50.990;4.494;2023-04-24T03:46:35;8.40;99.90
16321;DHT22;8269;50.990;4.494;2023-04-24T03:49:01;8.40;99.90
16321;DHT22;8269;50.990;4.494;2023-04-24T03:51:26;8.40;99.90
16321;DHT22;8269;50.990;4.494;2023-04-24T03:53:53;8.40;99.90
16321;DHT22;8269;50.990;4.494;2023-04-24T03:56:19;8.30;99.90
16321;DHT22;8269;50.990;4.494;2023-04-24T03:58:45;8.30;99.90
16321;DHT22;8269;50.990;4.494;2023-04-24T04:01:11;8.40;99.90
16321;DHT22;8269;50.990;4.494;2023-04-24T04:03:37;8.40;99.90
16321;DHT22;8269;50.990;4.494;2023-04-24T04:06:03;8.30;99.90
16321;DHT22;8269;50.990;4.494;2023-04-24T04:08:29;8.40;99.90
16321;DHT22;8269;50.990;4.494;2023-04-24T04:10:54;8.40;99.90
16321;DHT22;8269;50.990;4.494;2023-04-24T04:13:20;8.40;99.90
16321;DHT22;8269;50.990;4.494;2023-04-24T04:15:46;8.40;99.90
16321;DHT22;8269;50.990;4.494;2023-04-24T04:18:11;8.40;99.90
16321;DHT22;8269;50.990;4.494;2023-04-24T04:20:37;8.40;99.90
16321;DHT22;8269;50.990;4.494;2023-04-24T04:23:03;8.40;99.90
16321;DHT22;8269;50.990;4.494;2023-04-24T04:25:28;8.40;99.90
16321;DHT22;8269;50.990;4.494;2023-04-24T04:27:54;8.40;99.90
16321;DHT22;8269;50.990;4.494;2023-04-24T04:30:20;8.40;99.90
16321;DHT22;8269;50.990;4.494;2023-04-24T04:32:46;8.40;99.90
16321;DHT22;8269;50.990;4.494;2023-04-24T04:35:12;8.40;99.90
16321;DHT22;8269;50.990;4.494;2023-04-24T04:37:38;8.40;99.90
16321;DHT22;8269;50.990;4.494;2023-04-24T04:40:04;8.30;99.90
16321;DHT22;8269;50.990;4.494;2023-04-24T04:42:33;8.40;99.90
16321;DHT22;8269;50.990;4.494;2023-04-24T04:45:01;8.40;99.90
16321;DHT22;8269;50.990;4.494;2023-04-24T04:47:27;8.40;99.90
16321;DHT22;8269;50.990;4.494;2023-04-24T04:49:54;8.40;99.90
16321;DHT22;8269;50.990;4.494;2023-04-24T04:52:20;8.40;99.90
16321;DHT22;8269;50.990;4.494;2023-04-24T04:54:50;8.40;99.90
16321;DHT22;8269;50.990;4.494;2023-04-24T04:57:15;8.40;99.90
16321;DHT22;8269;50.990;4.494;2023-04-24T04:59:41;8.40;99.90
16321;DHT22;8269;50.990;4.494;2023-04-24T05:02:07;8.40;99.90
16321;DHT22;8269;50.990;4.494;2023-04-24T05:04:32;8.40;99.90
16321;DHT22;8269;50.990;4.494;2023-04-24T05:06:58;8.30;99.90
16321;DHT22;8269;50.990;4.494;2023-04-24T05:09:24;8.30;99.90
16321;DHT22;8269;50.990;4.494;2023-04-24T05:11:52;8.30;99.90
16321;DHT22;8269;50.990;4.494;2023-04-24T05:14:18;8.30;99.90
16321;DHT22;8269;50.990;4.494;2023-04-24T05:16:44;8.30;99.90
16321;DHT22;8269;50.990;4.494;2023-04-24T05:19:10;8.20;99.90
16321;DHT22;8269;50.990;4.494;2023-04-24T05:21:37;8.20;99.90
16321;DHT22;8269;50.990;4.494;2023-04-24T05:24:05;8.20;99.90
16321;DHT22;8269;50.990;4.494;2023-04-24T05:26:30;8.20;99.90
16321;DHT22;8269;50.990;4.494;2023-04-24T05:28:56;8.10;99.90
16321;DHT22;8269;50.990;4.494;2023-04-24T05:31:22;8.10;99.90
16321;DHT22;8269;50.990;4.494;2023-04-24T05:33:47;8.10;99.90
16321;DHT22;8269;50.990;4.494;2023-04-24T05:36:13;8.10;99.90
16321;DHT22;8269;50.990;4.494;2023-04-24T05:38:39;8.10;99.90
16321;DHT22;8269;50.990;4.494;2023-04-24T05:41:04;8.10;99.90
16321;DHT22;8269;50.990;4.494;2023-04-24T05:43:31;8.10;99.90
16321;DHT22;8269;50.990;4.494;2023-04-24T05:45:56;8.10;99.90
16321;DHT22;8269;50.990;4.494;2023-04-24T05:48:22;8.10;99.90
16321;DHT22;8269;50.990;4.494;2023-04-24T05:50:48;8.10;99.90
16321;DHT22;8269;50.990;4.494;2023-04-24T05:53:14;8.10;99.90
16321;DHT22;8269;50.990;4.494;2023-04-24T05:55:40;8.10;99.90
16321;DHT22;8269;50.990;4.494;2023-04-24T05:58:06;8.10;99.90
16321;DHT22;8269;50.990;4.494;2023-04-24T06:00:31;8.10;99.90
16321;DHT22;8269;50.990;4.494;2023-04-24T06:02:59;8.10;99.90
16321;DHT22;8269;50.990;4.494;2023-04-24T06:05:24;8.10;99.90
16321;DHT22;8269;50.990;4.494;2023-04-24T06:07:50;8.10;99.90
16321;DHT22;8269;50.990;4.494;2023-04-24T06:10:16;8.20;99.90
16321;DHT22;8269;50.990;4.494;2023-04-24T06:15:08;8.10;99.90
16321;DHT22;8269;50.990;4.494;2023-04-24T06:17:34;8.10;99.90
16321;DHT22;8269;50.990;4.494;2023-04-24T06:20:00;8.10;99.90
16321;DHT22;8269;50.990;4.494;2023-04-24T06:22:25;8.10;99.90
16321;DHT22;8269;50.990;4.494;2023-04-24T06:24:51;8.10;99.90
16321;DHT22;8269;50.990;4.494;2023-04-24T06:34:34;8.20;99.90
16321;DHT22;8269;50.990;4.494;2023-04-24T06:37:01;8.20;99.90
16321;DHT22;8269;50.990;4.494;2023-04-24T06:39:27;8.10;99.90
16321;DHT22;8269;50.990;4.494;2023-04-24T06:41:53;8.20;99.90
16321;DHT22;8269;50.990;4.494;2023-04-24T06:44:18;8.20;99.90
16321;DHT22;8269;50.990;4.494;2023-04-24T06:46:44;8.20;99.90
16321;DHT22;8269;50.990;4.494;2023-04-24T06:49:10;8.20;99.90
16321;DHT22;8269;50.990;4.494;2023-04-24T06:51:36;8.20;99.90
16321;DHT22;8269;50.990;4.494;2023-04-24T06:54:02;8.20;99.90
16321;DHT22;8269;50.990;4.494;2023-04-24T06:56:28;8.20;99.90
16321;DHT22;8269;50.990;4.494;2023-04-24T06:58:54;8.30;99.90
16321;DHT22;8269;50.990;4.494;2023-04-24T07:01:20;8.30;99.90
16321;DHT22;8269;50.990;4.494;2023-04-24T07:03:46;8.30;99.90
16321;DHT22;8269;50.990;4.494;2023-04-24T07:08:38;8.30;99.90
16321;DHT22;8269;50.990;4.494;2023-04-24T07:11:03;8.40;99.90
16321;DHT22;8269;50.990;4.494;2023-04-24T07:13:29;8.30;99.90
16321;DHT22;8269;50.990;4.494;2023-04-24T07:20:47;8.50;99.90
16321;DHT22;8269;50.990;4.494;2023-04-24T07:30:33;8.60;99.90
16321;DHT22;8269;50.990;4.494;2023-04-24T07:35:27;8.50;99.90
16321;DHT22;8269;50.990;4.494;2023-04-24T07:37:53;8.60;99.90
16321;DHT22;8269;50.990;4.494;2023-04-24T07:40:19;8.50;99.90
16321;DHT22;8269;50.990;4.494;2023-04-24T07:42:45;8.50;99.90
16321;DHT22;8269;50.990;4.494;2023-04-24T07:45:13;8.50;99.90
16321;DHT22;8269;50.990;4.494;2023-04-24T07:47:41;8.50;99.90
16321;DHT22;8269;50.990;4.494;2023-04-24T07:50:09;8.40;99.90
16321;DHT22;8269;50.990;4.494;2023-04-24T07:55:01;8.40;99.90
16321;DHT22;8269;50.990;4.494;2023-04-24T07:57:28;8.40;99.90
16321;DHT22;8269;50.990;4.494;2023-04-24T07:59:53;8.50;99.90
16321;DHT22;8269;50.990;4.494;2023-04-24T08:02:19;8.40;99.90
16321;DHT22;8269;50.990;4.494;2023-04-24T08:04:47;8.50;99.90
16321;DHT22;8269;50.990;4.494;2023-04-24T08:07:12;8.60;99.90
16321;DHT22;8269;50.990;4.494;2023-04-24T08:09:38;8.60;99.90
16321;DHT22;8269;50.990;4.494;2023-04-24T08:12:04;8.70;99.90
16321;DHT22;8269;50.990;4.494;2023-04-24T08:14:30;8.70;99.90
16321;DHT22;8269;50.990;4.494;2023-04-24T08:16:55;8.80;99.90
16321;DHT22;8269;50.990;4.494;2023-04-24T08:19:21;8.90;99.90
16321;DHT22;8269;50.990;4.494;2023-04-24T08:21:47;9.10;99.90
16321;DHT22;8269;50.990;4.494;2023-04-24T08:26:39;9.70;99.90
16321;DHT22;8269;50.990;4.494;2023-04-24T08:31:32;10.40;99.90
16321;DHT22;8269;50.990;4.494;2023-04-24T08:33:58;10.70;99.90
16321;DHT22;8269;50.990;4.494;2023-04-24T08:36:25;11.00;99.90
16321;DHT22;8269;50.990;4.494;2023-04-24T08:43:46;11.70;99.90
16321;DHT22;8269;50.990;4.494;2023-04-24T09:50:33;11.00;99.90
16321;DHT22;8269;50.990;4.494;2023-04-24T09:53:02;11.00;99.90
16321;DHT22;8269;50.990;4.494;2023-04-24T09:55:28;11.20;99.90
16321;DHT22;8269;50.990;4.494;2023-04-24T09:57:58;11.40;99.90
16321;DHT22;8269;50.990;4.494;2023-04-24T10:00:27;11.40;99.90
16321;DHT22;8269;50.990;4.494;2023-04-24T10:03:00;11.20;99.90
16321;DHT22;8269;50.990;4.494;2023-04-24T10:05:28;11.10;99.90
16321;DHT22;8269;50.990;4.494;2023-04-24T10:08:04;11.00;99.90
16321;DHT22;8269;50.990;4.494;2023-04-24T10:10:34;11.00;99.90
16321;DHT22;8269;50.990;4.494;2023-04-24T10:13:02;11.00;99.90
16321;DHT22;8269;50.990;4.494;2023-04-24T10:17:54;11.30;99.90
16321;DHT22;8269;50.990;4.494;2023-04-24T10:20:25;11.40;99.90
16321;DHT22;8269;50.990;4.494;2023-04-24T10:22:52;11.30;99.90
16321;DHT22;8269;50.990;4.494;2023-04-24T10:25:20;11.30;99.90
16321;DHT22;8269;50.990;4.494;2023-04-24T22:48:41;8.10;99.90
16321;DHT22;8269;50.990;4.494;2023-04-24T22:51:07;8.30;99.90
16321;DHT22;8269;50.990;4.494;2023-04-24T22:53:32;8.30;99.90
16321;DHT22;8269;50.990;4.494;2023-04-24T22:55:59;8.40;99.90
16321;DHT22;8269;50.990;4.494;2023-04-24T22:58:26;8.40;99.90
16321;DHT22;8269;50.990;4.494;2023-04-24T23:00:51;8.40;99.90
16321;DHT22;8269;50.990;4.494;2023-04-24T23:03:17;8.40;99.90
16321;DHT22;8269;50.990;4.494;2023-04-24T23:05:42;8.40;99.90
16321;DHT22;8269;50.990;4.494;2023-04-24T23:08:08;8.40;99.90
16321;DHT22;8269;50.990;4.494;2023-04-24T23:10:34;8.40;99.90
16321;DHT22;8269;50.990;4.494;2023-04-24T23:12:59;8.40;99.90
16321;DHT22;8269;50.990;4.494;2023-04-24T23:15:26;8.30;99.90
16321;DHT22;8269;50.990;4.494;2023-04-24T23:17:52;8.20;99.90
16321;DHT22;8269;50.990;4.494;2023-04-24T23:20:20;8.20;99.90
16321;DHT22;8269;50.990;4.494;2023-04-24T23:22:46;8.20;99.90
16321;DHT22;8269;50.990;4.494;2023-04-24T23:25:11;8.30;99.90
16321;DHT22;8269;50.990;4.494;2023-04-24T23:27:37;8.20;99.90
16321;DHT22;8269;50.990;4.494;2023-04-24T23:30:04;8.20;99.90
16321;DHT22;8269;50.990;4.494;2023-04-24T23:32:31;8.20;99.90
16321;DHT22;8269;50.990;4.494;2023-04-24T23:34:56;8.20;99.90
16321;DHT22;8269;50.990;4.494;2023-04-24T23:37:22;8.30;99.90
16321;DHT22;8269;50.990;4.494;2023-04-24T23:39:48;8.30;99.90
16321;DHT22;8269;50.990;4.494;2023-04-24T23:42:14;8.30;99.90
16321;DHT22;8269;50.990;4.494;2023-04-24T23:44:39;8.40;99.90
16321;DHT22;8269;50.990;4.494;2023-04-24T23:47:05;8.40;99.90
16321;DHT22;8269;50.990;4.494;2023-04-24T23:49:31;8.50;99.90
16321;DHT22;8269;50.990;4.494;2023-04-24T23:51:57;8.50;99.90
16321;DHT22;8269;50.990;4.494;2023-04-24T23:54:22;8.50;99.90
16321;DHT22;8269;50.990;4.494;2023-04-24T23:56:48;8.50;99.90
16321;DHT22;8269;50.990;4.494;2023-04-24T23:59:14;8.50;99.90
